Time;durP1;ratioP1;P1;durP2;ratioP2;P2;SDS_P1;SDS_P2;PMS_P1;PMS_P2;Temp;Humidity;BMP_temperature;BMP_pressure;BME280_temperature;BME280_humidity;BME280_pressure;Samples;Min_cycle;Max_cycle;Signal;HPM_P1;HPM_P2
2022/11/12 00:00:18;;;;;;;19.92;11.27;;;;;;;9.01;100.00;103031.75;6107466;23;20050;-56
2022/11/12 00:03:04;;;;;;;20.98;11.48;;;;;;;8.99;100.00;103041.97;6104701;23;20022;-56
2022/11/12 00:05:52;;;;;;;17.33;10.07;;;;;;;8.96;100.00;103030.47;6095098;23;20022;-57
2022/11/12 00:08:38;;;;;;;18.00;10.43;;;;;;;8.92;100.00;103031.06;6097002;23;20093;-53
2022/11/12 00:11:24;;;;;;;18.95;11.45;;;;;;;8.89;100.00;103039.63;6096837;23;20451;-54
2022/11/12 00:14:10;;;;;;;19.08;10.38;;;;;;;8.88;100.00;103043.41;6101756;23;20027;-56
2022/11/12 00:16:56;;;;;;;;;;;;;;;8.88;100.00;103043.41;6106021;23;20065;-53
2022/11/12 00:19:42;;;;;;;19.25;10.20;;;;;;;8.89;100.00;103043.19;6106191;23;19965;-57
2022/11/12 00:22:28;;;;;;;19.38;10.48;;;;;;;8.85;100.00;103043.78;6104349;23;20022;-57
2022/11/12 00:25:14;;;;;;;18.73;9.85;;;;;;;8.84;100.00;103047.56;6096476;23;20030;-52
2022/11/12 00:28:02;;;;;;;;;;;;;;;8.86;100.00;103049.03;6097338;23;20050;-56
2022/11/12 00:30:48;;;;;;;19.95;9.35;;;;;;;8.87;100.00;103049.88;6096648;23;19924;-57
2022/11/12 00:33:37;;;;;;;17.90;9.30;;;;;;;8.89;100.00;103050.50;6097301;23;20026;-57
2022/11/12 00:36:23;;;;;;;17.17;9.70;;;;;;;8.89;100.00;103045.06;6096447;23;20022;-55
2022/11/12 00:39:09;;;;;;;15.23;9.20;;;;;;;8.86;100.00;103046.31;6097063;23;20019;-57
2022/11/12 00:41:55;;;;;;;17.92;8.77;;;;;;;8.84;100.00;103048.38;6096578;23;20023;-56
2022/11/12 00:44:41;;;;;;;14.38;8.95;;;;;;;8.83;100.00;103049.44;6074995;23;20375;-58
2022/11/12 00:47:27;;;;;;;14.20;8.50;;;;;;;8.79;100.00;103040.00;6096353;23;20034;-55
2022/11/12 00:50:15;;;;;;;18.85;8.88;;;;;;;8.81;100.00;103040.66;6101098;23;20022;-57
2022/11/12 00:53:01;;;;;;;20.98;9.13;;;;;;;8.84;100.00;103037.50;6101209;23;20046;-65
2022/11/12 00:55:47;;;;;;;;;;;;;;;8.88;100.00;103038.81;6096729;23;20030;-57
2022/11/12 00:58:34;;;;;;;15.45;9.18;;;;;;;8.89;100.00;103047.78;6096280;23;20235;-57
2022/11/12 01:01:21;;;;;;;16.42;9.40;;;;;;;8.85;100.00;103050.09;6095151;23;20023;-53
2022/11/12 01:04:07;;;;;;;15.23;9.10;;;;;;;8.77;100.00;103042.09;6098332;23;20022;-53
2022/11/12 01:06:53;;;;;;;17.02;8.88;;;;;;;8.72;100.00;103042.69;6097172;23;20030;-57
2022/11/12 01:09:40;;;;;;;15.63;9.50;;;;;;;8.69;100.00;103034.09;6098052;23;20325;-58
2022/11/12 01:12:26;;;;;;;17.42;8.77;;;;;;;8.66;100.00;103039.91;6097765;23;20030;-57
2022/11/12 01:15:13;;;;;;;16.00;8.82;;;;;;;8.55;100.00;103035.06;6098306;23;20018;-58
2022/11/12 01:17:59;;;;;;;14.00;8.93;;;;;;;8.45;100.00;103038.97;6097329;23;20073;-58
2022/11/12 01:20:45;;;;;;;;;;;;;;;8.43;100.00;103043.75;6098099;23;20033;-59
2022/11/12 01:23:36;;;;;;;16.95;8.90;;;;;;;8.45;100.00;103038.16;6098205;23;19918;-57
2022/11/12 01:26:22;;;;;;;16.83;8.63;;;;;;;8.44;100.00;103039.16;6097494;23;20026;-58
2022/11/12 01:29:09;;;;;;;16.15;8.98;;;;;;;8.47;100.00;103036.91;6097116;23;20022;-58
2022/11/12 01:31:55;;;;;;;15.57;8.80;;;;;;;8.47;100.00;103022.50;6098003;23;20019;-56
2022/11/12 01:34:41;;;;;;;16.25;8.40;;;;;;;8.41;100.00;103026.00;6098083;23;20019;-55
2022/11/12 01:37:27;;;;;;;16.00;8.75;;;;;;;8.43;100.00;103029.34;6097655;23;20467;-57
2022/11/12 01:40:13;;;;;;;14.05;8.02;;;;;;;8.48;100.00;103022.28;6096556;23;20089;-58
2022/11/12 01:42:59;;;;;;;14.80;8.60;;;;;;;8.50;100.00;103020.19;6098044;23;20018;-57
2022/11/12 01:45:49;;;;;;;16.80;9.00;;;;;;;8.52;100.00;103023.56;6097500;23;20025;-57
2022/11/12 01:48:46;;;;;;;14.13;8.77;;;;;;;8.55;100.00;103018.75;6095519;23;20022;-55
2022/11/12 01:51:39;;;;;;;17.00;8.10;;;;;;;8.56;100.00;103026.69;6096277;23;20348;-58
2022/11/12 01:54:26;;;;;;;13.40;7.97;;;;;;;8.56;99.45;103012.28;6097453;23;20452;-55
2022/11/12 01:57:12;;;;;;;15.10;7.68;;;;;;;8.53;99.27;103014.34;6096457;23;20018;-58
2022/11/12 02:00:03;;;;;;;13.95;8.40;;;;;;;8.51;99.44;103021.03;6096947;23;20443;-58
2022/11/12 02:02:54;;;;;;;14.65;8.52;;;;;;;8.50;100.00;103020.19;6097684;23;20026;-56
2022/11/12 02:05:41;;;;;;;15.93;8.50;;;;;;;8.50;99.33;103020.19;6075468;23;20443;-57
2022/11/12 02:08:29;;;;;;;14.60;8.55;;;;;;;8.49;99.80;103015.81;6097307;23;20030;-55
2022/11/12 02:11:17;;;;;;;17.80;8.98;;;;;;;8.41;99.05;103024.09;6097575;23;20026;-57
2022/11/12 02:14:04;;;;;;;15.55;8.60;;;;;;;8.31;99.55;103015.44;6096720;23;20375;-55
2022/11/12 02:16:50;;;;;;;13.43;7.80;;;;;;;8.25;99.26;103018.94;6097282;23;20026;-58
2022/11/12 02:19:37;;;;;;;13.38;7.40;;;;;;;8.19;100.00;103017.03;6096488;23;20054;-57
2022/11/12 02:22:22;;;;;;;16.27;7.85;;;;;;;8.21;100.00;103014.97;6097487;23;20022;-55
2022/11/12 02:25:13;;;;;;;14.55;7.95;;;;;;;8.23;100.00;103011.00;6097425;23;20022;-55
2022/11/12 02:28:02;;;;;;;13.05;7.88;;;;;;;8.23;100.00;103011.00;6095875;23;20022;-59
2022/11/12 02:30:49;;;;;;;15.35;8.10;;;;;;;8.18;99.76;103015.34;6096378;23;20026;-55
2022/11/12 02:33:35;;;;;;;12.40;8.18;;;;;;;8.13;99.42;103013.25;6097674;23;20019;-58
2022/11/12 02:36:21;;;;;;;15.27;8.50;;;;;;;8.07;99.58;103022.16;6097528;23;20058;-57
2022/11/12 02:39:07;;;;;;;12.90;7.05;;;;;;;8.03;99.16;103021.75;6096893;23;20019;-56
2022/11/12 02:41:53;;;;;;;14.38;7.72;;;;;;;8.03;100.00;103020.88;6097383;23;20029;-57
2022/11/12 02:44:39;;;;;;;15.32;7.57;;;;;;;8.06;100.00;103018.63;6097309;23;20387;-53
2022/11/12 02:47:25;;;;;;;13.38;7.47;;;;;;;8.11;100.00;103016.16;6096467;23;20101;-52
2022/11/12 02:50:11;;;;;;;13.25;8.05;;;;;;;8.16;99.84;103014.72;6097041;23;20100;-53
2022/11/12 02:52:57;;;;;;;12.68;7.47;;;;;;;8.17;99.63;103013.69;6097196;23;20479;-52
2022/11/12 02:55:43;;;;;;;14.18;8.07;;;;;;;8.13;99.19;103007.81;6097347;23;20018;-54
2022/11/12 02:58:30;;;;;;;12.75;7.40;;;;;;;8.08;99.44;103005.69;6097161;23;20018;-55
2022/11/12 03:01:15;;;;;;;15.98;8.25;;;;;;;7.98;99.58;102994.31;6097173;23;20022;-51
2022/11/12 03:04:02;;;;;;;14.27;8.23;;;;;;;7.94;100.00;102997.63;6097299;23;20109;-56
2022/11/12 03:06:48;;;;;;;;;;;;;;;7.94;100.00;102995.75;6097067;23;20121;-58
2022/11/12 03:09:34;;;;;;;14.70;7.47;;;;;;;7.93;100.00;102993.25;6095505;23;19921;-56
2022/11/12 03:12:20;;;;;;;;;;;;;;;7.94;100.00;102997.63;6095925;23;20018;-55
2022/11/12 03:15:06;;;;;;;11.93;7.40;;;;;;;7.98;100.00;102997.03;6097027;23;19921;-56
2022/11/12 03:17:52;;;;;;;13.70;7.32;;;;;;;8.02;100.00;102995.59;6096364;23;20023;-57
2022/11/12 03:20:38;;;;;;;;;;;;;;;8.07;99.47;102998.56;6097311;23;20022;-57
2022/11/12 03:23:25;;;;;;;13.07;6.90;;;;;;;8.02;99.91;102994.78;6096049;23;19917;-58
2022/11/12 03:26:12;;;;;;;13.10;7.47;;;;;;;7.97;99.53;102998.09;6096696;23;20448;-58
2022/11/12 03:28:57;;;;;;;12.10;7.43;;;;;;;7.89;99.93;102996.34;6096763;23;20026;-57
2022/11/12 03:31:43;;;;;;;15.45;7.38;;;;;;;7.87;99.91;102994.88;6096673;23;20018;-56
2022/11/12 03:34:29;;;;;;;14.48;7.57;;;;;;;7.82;99.12;103002.78;6096928;23;20015;-56
2022/11/12 03:37:15;;;;;;;15.88;7.65;;;;;;;7.76;99.97;103006.25;6096972;23;20021;-58
2022/11/12 03:40:02;;;;;;;12.15;6.95;;;;;;;7.76;100.00;103000.81;6096215;23;20022;-59
2022/11/12 03:42:49;;;;;;;11.85;7.13;;;;;;;7.79;99.81;102993.16;6096369;23;20019;-59
2022/11/12 03:45:35;;;;;;;11.70;6.97;;;;;;;7.87;100.00;103000.31;6095830;23;20097;-57
2022/11/12 03:48:22;;;;;;;;;;;;;;;7.95;100.00;102999.31;6097180;23;20124;-57
2022/11/12 03:51:08;;;;;;;12.80;7.47;;;;;;;8.00;99.91;103003.09;6096409;23;19917;-57
2022/11/12 03:54:00;;;;;;;12.13;7.35;;;;;;;8.01;100.00;103007.53;6096280;23;20392;-56
2022/11/12 03:56:46;;;;;;;12.25;7.20;;;;;;;8.05;100.00;103008.78;6096610;23;20105;-56
2022/11/12 03:59:33;;;;;;;12.48;7.20;;;;;;;8.10;100.00;103008.19;6096496;23;20019;-57
2022/11/12 04:02:19;;;;;;;;;;;;;;;8.09;99.89;103007.34;6097205;23;20027;-56
2022/11/12 04:08:35;;;;;;;11.70;7.10;;;;;;;8.11;99.67;103005.28;6096553;23;20105;-59
2022/11/12 04:11:21;;;;;;;13.57;7.32;;;;;;;8.12;100.00;103003.41;6095669;23;20037;-56
2022/11/12 04:14:07;;;;;;;11.77;7.25;;;;;;;8.12;99.79;103006.13;6096408;23;20023;-57
2022/11/12 04:23:04;;;;;;;15.00;7.93;;;;;;;8.10;99.61;103003.63;6096486;23;20018;-56
2022/11/12 04:32:00;;;;;;;13.73;7.75;;;;;;;8.04;97.89;102990.81;6093526;23;20026;-51
2022/11/12 04:34:46;;;;;;;;;;;;;;;7.85;97.60;102988.78;6097184;23;20022;-55
2022/11/12 04:37:46;;;;;;;17.63;8.45;;;;;;;7.61;98.19;102988.16;6098801;23;19917;-57
2022/11/12 04:46:42;;;;;;;12.73;6.88;;;;;;;7.44;100.00;102989.47;6098563;23;20018;-57
2022/11/12 04:49:28;;;;;;;12.52;7.25;;;;;;;7.44;100.00;102986.75;6097988;23;20018;-58
2022/11/12 04:52:14;;;;;;;;;;;;;;;7.42;99.63;102988.81;6098758;23;20079;-58
2022/11/12 04:55:00;;;;;;;11.27;6.72;;;;;;;7.44;100.00;102984.06;6097771;23;19941;-55
2022/11/12 04:57:46;;;;;;;15.13;7.05;;;;;;;7.50;100.00;102985.13;6098415;23;20022;-57
2022/11/12 05:00:32;;;;;;;;;;;;;;;7.57;99.97;102980.63;6098886;23;20018;-54
2022/11/12 05:03:18;;;;;;;13.10;6.95;;;;;;;7.59;99.90;102981.25;6096400;23;19917;-52
2022/11/12 05:06:50;;;;;;;;;;;;;;;7.63;99.70;102979.84;6097189;23;20045;-55
2022/11/12 05:09:10;;;;;;;12.27;6.85;;;;;;;7.63;98.95;102969.00;6098508;23;19996;-58
2022/11/12 05:11:56;;;;;;;14.00;6.72;;;;;;;7.61;99.04;102977.31;6098675;23;20023;-57
2022/11/12 05:14:42;;;;;;;;;;;;;;;7.60;98.16;102969.38;6096794;23;20078;-58
2022/11/12 05:17:29;;;;;;;13.63;7.03;;;;;;;7.57;98.52;102970.59;6098178;23;20401;-52
2022/11/12 05:20:15;;;;;;;15.52;7.60;;;;;;;7.54;98.52;102964.75;6098716;23;20026;-55
2022/11/12 05:23:01;;;;;;;13.75;7.10;;;;;;;7.52;98.51;102967.63;6096789;23;20026;-57
2022/11/12 05:25:52;;;;;;;14.18;6.88;;;;;;;7.51;97.95;102967.84;6097337;23;20026;-55
2022/11/12 05:28:38;;;;;;;;;;;;;;;7.52;98.42;102962.22;6098576;23;20423;-54
2022/11/12 05:31:24;;;;;;;13.18;6.97;;;;;;;7.56;98.86;102952.66;6098433;23;19921;-59
2022/11/12 05:34:11;;;;;;;13.77;7.57;;;;;;;7.58;97.26;102949.75;6097469;23;20018;-56
2022/11/12 05:36:58;;;;;;;11.68;6.75;;;;;;;7.57;97.70;102951.59;6097061;23;20042;-58
2022/11/12 05:39:44;;;;;;;14.27;6.60;;;;;;;7.58;98.21;102950.59;6098576;23;20070;-57
2022/11/12 05:42:30;;;;;;;;;;;;;;;7.61;98.43;102950.19;6098885;23;20046;-55
2022/11/12 05:45:16;;;;;;;14.82;7.63;;;;;;;7.65;97.34;102945.22;6097953;23;19917;-57
2022/11/12 05:48:02;;;;;;;13.52;7.25;;;;;;;7.66;97.71;102947.72;6097653;23;20022;-59
2022/11/12 05:50:52;;;;;;;15.02;6.88;;;;;;;7.62;96.32;102946.44;6097958;23;20045;-57
2022/11/12 05:53:59;;;;;;;14.80;6.50;;;;;;;7.55;96.56;102944.69;6096644;23;20018;-59
2022/11/12 05:56:46;;;;;;;13.70;7.47;;;;;;;7.43;96.39;102955.22;6096332;23;20022;-55
2022/11/12 05:59:32;;;;;;;11.85;7.03;;;;;;;7.33;97.91;102958.28;6097999;23;20048;-57
2022/11/12 06:02:18;;;;;;;16.80;7.47;;;;;;;7.30;97.23;102955.94;6097534;23;20026;-56
2022/11/12 06:05:04;;;;;;;;;;;;;;;7.24;97.43;102960.28;6097616;23;20019;-57
2022/11/12 06:07:50;;;;;;;;;;;;;;;7.18;97.99;102960.22;6096543;23;20338;-50
2022/11/12 06:10:36;;;;;;;;;;;;;;;7.19;97.90;102951.91;6098219;23;20238;-53
2022/11/12 06:13:24;;;;;;;12.93;7.03;;;;;;;7.24;98.45;102960.28;6097418;23;19918;-56
2022/11/12 06:16:10;;;;;;;17.35;7.65;;;;;;;7.34;97.70;102959.13;6075358;23;20026;-52
2022/11/12 06:18:56;;;;;;;;;;;;;;;7.34;97.77;102959.97;6097271;23;20015;-55
2022/11/12 06:21:42;;;;;;;18.92;7.45;;;;;;;7.35;97.19;102960.78;6097244;23;19917;-53
2022/11/12 06:24:29;;;;;;;14.60;7.30;;;;;;;7.37;97.87;102964.16;6097535;23;20432;-52
2022/11/12 06:27:22;;;;;;;16.33;7.90;;;;;;;7.37;96.95;102964.16;6095943;23;20101;-50
2022/11/12 06:30:09;;;;;;;14.02;7.22;;;;;;;7.33;97.30;102968.28;6096994;23;20452;-50
2022/11/12 06:32:55;;;;;;;14.48;8.05;;;;;;;7.25;96.99;102967.38;6096716;23;20027;-55
2022/11/12 06:35:41;;;;;;;12.90;7.00;;;;;;;7.14;96.69;102976.00;6096710;23;20018;-56
2022/11/12 06:38:36;;;;;;;16.98;7.55;;;;;;;7.05;96.30;102977.19;6092983;23;20018;-58
2022/11/12 06:41:23;;;;;;;16.70;7.22;;;;;;;6.92;98.54;102974.31;6091883;23;20026;-54
2022/11/12 06:44:09;;;;;;;;;;;;;;;6.85;98.25;102973.38;6093612;23;20026;-56
2022/11/12 06:46:55;;;;;;;12.07;7.68;;;;;;;6.76;98.57;102968.09;6091394;23;19921;-57
2022/11/12 06:49:41;;;;;;;;;;;;;;;6.75;99.50;102971.81;6093535;23;20026;-56
2022/11/12 06:52:27;;;;;;;16.10;7.75;;;;;;;6.78;98.57;102976.88;6093425;23;19937;-56
2022/11/12 06:55:14;;;;;;;14.70;7.70;;;;;;;6.74;98.65;102980.97;6092921;23;20022;-57
2022/11/12 06:58:00;;;;;;;13.40;7.60;;;;;;;6.66;98.82;102978.34;6092248;23;20027;-57
2022/11/12 07:00:46;;;;;;;12.75;7.85;;;;;;;6.67;99.21;102974.63;6092283;23;20543;-50
2022/11/12 07:03:32;;;;;;;;;;;;;;;6.66;98.77;102986.47;6093363;23;20022;-55
2022/11/12 07:06:19;;;;;;;11.60;6.85;;;;;;;6.69;99.54;102988.00;6093034;23;19921;-57
2022/11/12 07:09:06;;;;;;;14.90;7.40;;;;;;;6.71;99.61;102984.06;6092416;23;20325;-57
2022/11/12 07:11:52;;;;;;;16.17;7.65;;;;;;;6.73;98.21;102983.88;6096520;23;20022;-55
2022/11/12 07:14:38;;;;;;;13.13;7.40;;;;;;;6.73;98.39;102989.28;6096560;23;20053;-58
2022/11/12 07:17:24;;;;;;;11.35;6.78;;;;;;;6.72;98.56;102983.03;6096500;23;20444;-56
2022/11/12 07:20:10;;;;;;;12.57;6.80;;;;;;;6.76;98.06;102983.50;6096585;23;20022;-57
2022/11/12 07:23:00;;;;;;;13.40;6.97;;;;;;;6.73;97.96;102992.81;6095462;23;20019;-57
2022/11/12 07:25:46;;;;;;;12.55;7.10;;;;;;;6.78;98.69;102987.72;6096236;23;20020;-57
2022/11/12 07:28:32;;;;;;;14.40;6.80;;;;;;;6.78;98.13;102990.41;6096897;23;20023;-56
2022/11/12 07:31:19;;;;;;;13.10;6.93;;;;;;;6.78;98.56;102995.84;6095691;23;20022;-56
2022/11/12 07:34:05;;;;;;;11.23;6.78;;;;;;;6.77;97.93;102987.88;6096611;23;20014;-58
2022/11/12 07:36:51;;;;;;;13.25;6.78;;;;;;;6.71;98.60;102999.47;6096518;23;20438;-56
2022/11/12 07:39:37;;;;;;;12.70;6.43;;;;;;;6.70;99.05;103001.34;6096381;23;20455;-58
2022/11/12 07:42:23;;;;;;;13.98;7.63;;;;;;;6.72;99.42;102996.56;6096607;23;20018;-58
2022/11/12 07:45:10;;;;;;;15.52;7.15;;;;;;;6.78;99.84;103003.09;6096645;23;20101;-55
2022/11/12 07:47:59;;;;;;;;;;;;;;;6.82;100.00;103001.69;6095675;23;20039;-58
2022/11/12 07:50:44;;;;;;;11.93;6.80;;;;;;;6.91;99.84;103005.16;6095995;23;19917;-57
2022/11/12 07:53:30;;;;;;;;;;;;;;;7.01;100.00;103008.41;6096718;23;20025;-55
2022/11/12 07:56:18;;;;;;;10.73;6.43;;;;;;;7.08;98.84;103003.91;6095814;23;20004;-51
2022/11/12 07:59:06;;;;;;;13.43;6.38;;;;;;;7.07;98.88;103013.06;6095250;23;20046;-58
2022/11/12 08:01:52;;;;;;;13.20;6.63;;;;;;;7.08;99.58;103009.31;6096289;23;20022;-55
2022/11/12 08:04:38;;;;;;;;;;;;;;;7.11;98.67;103005.38;6097759;23;20416;-52
2022/11/12 08:07:24;;;;;;;11.85;6.22;;;;;;;7.15;98.74;103010.22;6096437;23;19917;-54
2022/11/12 08:10:11;;;;;;;13.07;6.65;;;;;;;7.21;98.63;103017.59;6095801;23;20354;-54
2022/11/12 08:12:57;;;;;;;14.80;6.43;;;;;;;7.28;98.49;103014.13;6098888;23;20026;-52
2022/11/12 08:15:42;;;;;;;79.00;18.27;;;;;;;7.37;98.03;103002.13;6098478;23;20022;-52
2022/11/12 08:18:35;;;;;;;10.60;6.35;;;;;;;7.41;97.51;103019.72;6097585;23;20029;-53
2022/11/12 08:21:21;;;;;;;11.85;6.50;;;;;;;7.44;98.33;103019.31;6098872;23;20022;-53
2022/11/12 08:24:07;;;;;;;11.75;6.45;;;;;;;7.46;98.08;103026.22;6098422;23;20098;-52
2022/11/12 08:26:53;;;;;;;14.73;7.10;;;;;;;7.50;98.80;103025.81;6098184;23;20027;-56
2022/11/12 08:29:39;;;;;;;15.10;6.53;;;;;;;7.49;98.50;103022.28;6097062;23;20022;-55
2022/11/12 08:32:25;;;;;;;;;;;;;;;7.50;99.35;103023.94;6097363;23;20023;-54
2022/11/12 08:35:12;;;;;;;15.48;7.80;;;;;;;7.53;99.68;103029.00;6098500;23;19917;-57
2022/11/12 08:38:01;;;;;;;;;;;;;;;7.55;98.91;103021.53;6099300;23;20355;-53
2022/11/12 08:40:47;;;;;;;13.07;6.90;;;;;;;7.59;98.92;103030.94;6097258;23;19917;-52
2022/11/12 08:43:34;;;;;;;;;;;;;;;7.60;99.24;103032.63;6099204;23;20110;-57
2022/11/12 08:46:20;;;;;;;15.23;7.13;;;;;;;7.62;99.59;103022.41;6095611;23;19921;-53
2022/11/12 08:49:06;;;;;;;;;;;;;;;7.64;99.10;103030.34;6097673;23;20041;-52
2022/11/12 08:51:52;;;;;;;19.23;8.00;;;;;;;7.62;99.01;103033.25;6097517;23;20350;-55
2022/11/12 08:54:38;;;;;;;14.07;7.13;;;;;;;7.62;99.29;103038.66;6098260;23;20014;-57
2022/11/12 08:57:24;;;;;;;16.80;7.95;;;;;;;7.66;99.98;103036.44;6097554;23;20022;-55
2022/11/12 09:00:11;;;;;;;17.25;7.57;;;;;;;7.71;99.86;103035.84;6097318;23;20026;-57
2022/11/12 09:03:01;;;;;;;17.25;7.15;;;;;;;7.77;99.56;103037.75;6098359;23;20019;-53
2022/11/12 09:05:48;;;;;;;15.88;7.63;;;;;;;7.78;98.66;103036.75;6097357;23;20019;-57
2022/11/12 09:08:36;;;;;;;17.20;7.43;;;;;;;7.80;98.91;103037.41;6097571;23;20535;-55
2022/11/12 09:11:22;;;;;;;15.23;7.25;;;;;;;7.81;98.92;103036.34;6095027;23;20022;-56
2022/11/12 09:14:07;;;;;;;19.27;7.10;;;;;;;7.86;98.49;103023.03;6098207;23;20023;-55
2022/11/12 09:16:54;;;;;;;13.57;6.68;;;;;;;7.92;98.08;103035.84;6097216;23;20321;-58
2022/11/12 09:19:40;;;;;;;19.38;7.18;;;;;;;7.97;98.90;103025.22;6099179;23;20014;-56
2022/11/12 09:22:31;;;;;;;18.23;7.10;;;;;;;8.02;97.99;103033.63;6097963;23;20053;-59
2022/11/12 09:25:17;;;;;;;16.45;7.50;;;;;;;8.04;97.67;103031.56;6096780;23;20018;-59
2022/11/12 09:28:11;;;;;;;19.00;7.28;;;;;;;8.06;98.24;103032.19;6096925;23;20018;-55
2022/11/12 09:30:57;;;;;;;16.23;6.78;;;;;;;8.08;98.32;103038.28;6098163;23;20022;-57
2022/11/12 09:33:43;;;;;;;;;;;;;;;8.14;98.05;103035.81;6098065;23;20105;-55
2022/11/12 09:36:29;;;;;;;16.23;6.97;;;;;;;8.16;97.95;103040.00;6098136;23;19917;-58
2022/11/12 09:39:19;;;;;;;18.45;7.88;;;;;;;8.16;98.59;103029.13;6097328;23;20395;-56
2022/11/12 09:42:07;;;;;;;16.80;7.50;;;;;;;8.19;98.93;103033.34;6097934;23;20022;-56
2022/11/12 09:45:05;;;;;;;18.13;7.85;;;;;;;8.23;98.91;103032.75;6096619;23;20022;-54
2022/11/12 09:47:58;;;;;;;17.15;7.53;;;;;;;8.30;98.95;103030.06;6095920;23;20026;-57
2022/11/12 09:50:57;;;;;;;15.40;7.28;;;;;;;8.34;98.64;103036.78;6098095;23;20328;-54
2022/11/12 09:53:57;;;;;;;15.95;7.63;;;;;;;8.36;98.79;103031.97;6098346;23;20025;-56
2022/11/12 09:56:43;;;;;;;13.85;7.18;;;;;;;8.40;100.00;103025.16;6097729;23;20022;-52
2022/11/12 09:59:30;;;;;;;;;;;;;;;8.43;99.89;103023.91;6097997;23;20046;-57
2022/11/12 10:02:42;;;;;;;14.95;7.50;;;;;;;8.47;99.53;103030.63;6096489;23;19917;-56
2022/11/12 10:05:39;;;;;;;17.20;8.45;;;;;;;8.51;99.92;103023.75;6096276;23;20093;-52
2022/11/12 10:08:34;;;;;;;18.08;7.70;;;;;;;8.53;100.00;103025.22;6095971;23;20022;-56
2022/11/12 10:11:27;;;;;;;15.90;7.28;;;;;;;8.60;100.00;103024.44;6096389;23;20467;-51
2022/11/12 10:14:36;;;;;;;13.18;7.00;;;;;;;8.61;100.00;103020.66;6096654;23;20019;-58
2022/11/12 10:17:44;;;;;;;14.93;7.10;;;;;;;8.66;100.00;103018.19;6097346;23;20023;-56
2022/11/12 10:20:58;;;;;;;19.33;7.32;;;;;;;8.70;100.00;103008.59;6096328;23;20097;-57
2022/11/12 10:23:51;;;;;;;16.25;7.75;;;;;;;8.73;100.00;103010.91;6097177;23;20015;-56
2022/11/12 10:26:38;;;;;;;14.85;7.28;;;;;;;8.75;100.00;103003.38;6096954;23;20024;-57
2022/11/12 10:29:49;;;;;;;15.93;7.40;;;;;;;8.79;100.00;103010.09;6096083;23;20081;-58
2022/11/12 10:32:36;;;;;;;14.35;7.28;;;;;;;8.82;100.00;103001.53;6096135;23;20042;-58
2022/11/12 10:35:23;;;;;;;11.90;6.70;;;;;;;8.87;100.00;102996.31;6096587;23;20022;-59
2022/11/12 10:38:15;;;;;;;15.10;7.50;;;;;;;8.92;100.00;102996.59;6096940;23;20022;-56
2022/11/12 10:41:24;;;;;;;14.52;6.85;;;;;;;9.03;100.00;102997.03;6097115;23;20015;-54
2022/11/12 10:44:16;;;;;;;15.05;7.57;;;;;;;9.08;100.00;102987.22;6097072;23;20026;-57
2022/11/12 10:47:31;;;;;;;10.93;6.80;;;;;;;9.12;100.00;102984.94;6096099;23;20018;-53
2022/11/12 10:50:20;;;;;;;;;;;;;;;9.22;100.00;102985.38;6097279;23;20022;-56
2022/11/12 10:53:09;;;;;;;13.02;7.88;;;;;;;9.28;100.00;102978.25;6096352;23;19917;-58
2022/11/12 10:55:58;;;;;;;14.73;7.82;;;;;;;9.36;100.00;102986.25;6095434;23;20014;-57
2022/11/12 10:58:44;;;;;;;12.27;6.72;;;;;;;9.39;100.00;102983.94;6097891;23;20018;-56
2022/11/12 11:01:32;;;;;;;14.07;7.03;;;;;;;9.38;100.00;102978.72;6097646;23;20070;-57
2022/11/12 11:04:21;;;;;;;13.15;7.18;;;;;;;9.37;100.00;102975.13;6095823;23;20033;-57
2022/11/12 11:07:23;;;;;;;13.93;7.70;;;;;;;9.37;100.00;102975.13;6096707;23;20448;-56
2022/11/12 11:10:26;;;;;;;13.25;7.30;;;;;;;9.42;100.00;102973.69;6095426;23;20395;-57
2022/11/12 11:13:26;;;;;;;14.77;7.32;;;;;;;9.43;100.00;102967.19;6095718;23;20459;-57
2022/11/12 11:16:14;;;;;;;17.20;8.23;;;;;;;9.47;100.00;102965.72;6096817;23;20093;-57
2022/11/12 11:19:04;;;;;;;14.23;7.53;;;;;;;9.48;100.00;102968.25;6096898;23;20023;-58
2022/11/12 11:21:50;;;;;;;11.73;7.20;;;;;;;9.56;100.00;102959.03;6095719;23;20103;-56
2022/11/12 11:24:54;;;;;;;;;;;;;;;9.62;100.00;102963.66;6096164;23;20042;-57
2022/11/12 11:27:45;;;;;;;13.63;7.68;;;;;;;9.69;100.00;102955.47;6096914;23;20223;-54
2022/11/12 11:30:31;;;;;;;12.15;7.35;;;;;;;9.73;100.00;102960.28;6096184;23;20026;-55
2022/11/12 11:33:39;;;;;;;14.93;7.50;;;;;;;9.76;100.00;102959.88;6097293;23;20146;-55
2022/11/12 11:37:15;;;;;;;12.68;7.60;;;;;;;9.79;100.00;102961.38;6095188;23;20029;-56
2022/11/12 11:40:15;;;;;;;15.82;8.10;;;;;;;9.83;100.00;102954.44;6095234;23;20459;-52
2022/11/12 11:43:07;;;;;;;12.57;7.68;;;;;;;9.85;100.00;102954.22;6097049;23;20027;-52
2022/11/12 11:46:02;;;;;;;13.57;7.72;;;;;;;9.86;100.00;102947.72;6096065;23;20018;-54
2022/11/12 11:49:03;;;;;;;15.85;8.13;;;;;;;9.89;100.00;102947.31;6096460;23;20018;-49
2022/11/12 11:52:13;;;;;;;14.18;8.00;;;;;;;9.93;100.00;102941.25;6096451;23;20029;-52
2022/11/12 11:55:29;;;;;;;12.85;8.18;;;;;;;9.98;100.00;102938.72;6095782;23;20019;-53
2022/11/12 11:58:52;;;;;;;15.77;7.97;;;;;;;9.98;100.00;102937.84;6092560;23;20030;-53
2022/11/12 12:01:47;;;;;;;15.27;8.20;;;;;;;10.02;100.00;102939.13;6091978;23;20467;-55
2022/11/12 12:04:33;;;;;;;16.42;7.70;;;;;;;10.05;100.00;102929.69;6092884;23;20022;-55
2022/11/12 12:08:11;;;;;;;12.60;7.93;;;;;;;10.12;100.00;102939.50;6093004;23;20026;-56
2022/11/12 12:11:09;;;;;;;14.30;8.27;;;;;;;10.25;100.00;102938.66;6068207;23;20031;-55
2022/11/12 12:14:23;;;;;;;15.57;8.88;;;;;;;10.30;100.00;102938.88;6091044;23;20329;-55
2022/11/12 12:17:25;;;;;;;17.02;7.78;;;;;;;10.31;100.00;102935.09;6092825;23;20093;-55
2022/11/12 12:20:24;;;;;;;14.63;8.80;;;;;;;10.34;100.00;102931.97;6091651;23;20023;-56
2022/11/12 12:23:23;;;;;;;17.27;9.27;;;;;;;10.42;100.00;102931.72;6091345;23;20022;-53
2022/11/12 12:26:16;;;;;;;14.20;8.77;;;;;;;10.44;100.00;102923.34;6092772;23;20027;-54
2022/11/12 12:29:27;;;;;;;13.88;9.00;;;;;;;10.47;100.00;102911.16;6091800;23;20216;-53
2022/11/12 12:32:32;;;;;;;14.18;9.10;;;;;;;10.48;100.00;102913.66;6091320;23;20026;-54
2022/11/12 12:35:23;;;;;;;16.55;9.63;;;;;;;10.52;100.00;102909.44;6091782;23;20023;-54
2022/11/12 12:38:19;;;;;;;14.60;8.85;;;;;;;10.61;100.00;102907.31;6091626;23;20329;-53
2022/11/12 12:41:14;;;;;;;15.95;8.95;;;;;;;10.68;100.00;102904.53;6070316;23;20659;-53
2022/11/12 12:44:05;;;;;;;17.15;9.43;;;;;;;10.66;100.00;102900.16;6091201;23;20070;-54
2022/11/12 12:46:58;;;;;;;13.55;9.82;;;;;;;10.74;100.00;102890.06;6092796;23;20444;-50
2022/11/12 12:49:46;;;;;;;14.25;9.88;;;;;;;10.75;100.00;102897.16;6092500;23;20038;-52
2022/11/12 12:52:59;;;;;;;14.50;9.38;;;;;;;10.77;100.00;102895.06;6092457;23;20054;-54
2022/11/12 12:55:48;;;;;;;17.50;9.48;;;;;;;10.85;100.00;102892.09;6092740;23;20018;-55
2022/11/12 12:58:44;;;;;;;14.43;9.32;;;;;;;10.89;100.00;102882.41;6091981;23;20019;-52
2022/11/12 13:01:32;;;;;;;;;;;;;;;10.97;100.00;102884.06;6093141;23;20459;-53
2022/11/12 13:04:54;;;;;;;17.00;9.88;;;;;;;11.01;100.00;102877.91;6092829;23;20323;-53
2022/11/12 13:07:43;;;;;;;17.05;9.18;;;;;;;10.97;100.00;102868.53;6092979;23;20027;-52
2022/11/12 13:10:38;;;;;;;15.68;9.18;;;;;;;11.04;100.00;102874.78;6093506;23;20132;-56
2022/11/12 13:13:30;;;;;;;18.83;9.73;;;;;;;11.07;100.00;102871.59;6093892;23;20451;-51
2022/11/12 13:16:49;;;;;;;15.65;9.63;;;;;;;11.13;100.00;102858.13;6093046;23;20348;-52
2022/11/12 13:19:53;;;;;;;21.30;9.80;;;;;;;11.20;100.00;102864.34;6093861;23;20026;-53
2022/11/12 13:22:39;;;;;;;18.45;9.70;;;;;;;11.28;100.00;102859.47;6093884;23;20098;-51
2022/11/12 13:25:30;;;;;;;16.65;9.75;;;;;;;11.28;100.00;102864.06;6094425;23;20030;-58
2022/11/12 13:28:15;;;;;;;16.52;9.88;;;;;;;11.22;100.00;102860.34;6092837;23;20026;-56
2022/11/12 13:31:03;;;;;;;14.13;9.43;;;;;;;11.22;100.00;102862.25;6094071;23;20034;-51
2022/11/12 13:33:49;;;;;;;15.88;10.32;;;;;;;11.23;100.00;102858.44;6072100;23;20031;-56
2022/11/12 13:36:35;;;;;;;;;;;;;;;11.25;100.00;102859.06;6094303;23;20027;-58